Disclaimer

Please do not use the information listed here in-flight or in-navigation, as they are not provided to us by the airports but are provided by volunteers, so they might be outdated.

Search


Regions


Airport information page

Radio informations:
Tower (TWR) - 118.7 MHz
RDO - 127.35 MHz
METRO - 116.15 MHz
HELO - 131.7 MHz
Ground (GND) - 121.7 MHz
DEP - 131.9 MHz
INFO - 127.25 MHz
Approach (APP) - 128.2 MHz
BALAD ACC - 123.52 MHz

Latitude: N/A
Longitude: N/A
Elevation: N/A
Operating hours: N/A
Operating agency: N/A
Timezone: N/A
Fuel: N/A

Recent METARs:
ORBI 151100Z VRB02KT 2500 BR OVC030 18/15 Q1013 NOSIG
ORBI 151100Z VRB02KT 2500 BR OVC030 18/15 Q1013 NOSIG
ORBI 151200Z VRB02KT 2500 BR OVC030 18/15 Q1013 TEMPO -SHRA

Airport on the map: